sensor_id;sensor_type;location;lat;lon;timestamp;pressure;altitude;pressure_sealevel;temperature;humidity
66430;BME280;53242;51.694;10.006;2023-05-20T00:02:05;100317.34;;;12.80;60.31
66430;BME280;53242;51.694;10.006;2023-05-20T00:04:27;100312.41;;;12.77;60.46
66430;BME280;53242;51.694;10.006;2023-05-20T00:06:50;100314.72;;;12.80;60.49
66430;BME280;53242;51.694;10.006;2023-05-20T00:09:12;100318.41;;;12.64;61.00
66430;BME280;53242;51.694;10.006;2023-05-20T00:11:35;100311.59;;;12.55;61.52
66430;BME280;53242;51.694;10.006;2023-05-20T00:13:57;100313.94;;;12.65;60.70
66430;BME280;53242;51.694;10.006;2023-05-20T00:16:19;100311.19;;;12.58;61.18
66430;BME280;53242;51.694;10.006;2023-05-20T00:18:42;100310.84;;;12.61;61.50
66430;BME280;53242;51.694;10.006;2023-05-20T00:21:04;100314.69;;;12.59;61.31
66430;BME280;53242;51.694;10.006;2023-05-20T00:23:27;100306.63;;;12.67;61.39
66430;BME280;53242;51.694;10.006;2023-05-20T00:25:49;100312.66;;;12.61;61.67
66430;BME280;53242;51.694;10.006;2023-05-20T00:28:12;100316.81;;;12.48;62.23
66430;BME280;53242;51.694;10.006;2023-05-20T00:30:34;100319.00;;;12.45;62.15
66430;BME280;53242;51.694;10.006;2023-05-20T00:32:57;100310.78;;;12.55;61.89
66430;BME280;53242;51.694;10.006;2023-05-20T00:35:19;100308.97;;;12.40;62.17
66430;BME280;53242;51.694;10.006;2023-05-20T00:37:42;100309.41;;;12.44;62.32
66430;BME280;53242;51.694;10.006;2023-05-20T00:40:05;100314.03;;;12.57;61.88
66430;BME280;53242;51.694;10.006;2023-05-20T00:42:28;100304.91;;;12.59;61.92
66430;BME280;53242;51.694;10.006;2023-05-20T00:44:50;100303.72;;;12.62;61.45
66430;BME280;53242;51.694;10.006;2023-05-20T00:47:22;100310.41;;;12.58;62.66
66430;BME280;53242;51.694;10.006;2023-05-20T00:49:45;100304.28;;;12.57;61.82
66430;BME280;53242;51.694;10.006;2023-05-20T00:52:08;100301.88;;;12.41;62.26
66430;BME280;53242;51.694;10.006;2023-05-20T00:54:31;100296.34;;;12.57;61.75
66430;BME280;53242;51.694;10.006;2023-05-20T00:56:53;100294.91;;;12.55;61.94
66430;BME280;53242;51.694;10.006;2023-05-20T00:59:16;100292.66;;;12.58;61.75
66430;BME280;53242;51.694;10.006;2023-05-20T01:01:39;100292.19;;;12.70;61.51
66430;BME280;53242;51.694;10.006;2023-05-20T01:04:01;100293.88;;;12.56;61.75
66430;BME280;53242;51.694;10.006;2023-05-20T01:06:24;100291.06;;;12.57;61.81
66430;BME280;53242;51.694;10.006;2023-05-20T01:08:47;100293.00;;;12.48;61.95
66430;BME280;53242;51.694;10.006;2023-05-20T01:11:33;100280.63;;;12.34;62.73
66430;BME280;53242;51.694;10.006;2023-05-20T01:14:00;100284.06;;;12.34;62.53
66430;BME280;53242;51.694;10.006;2023-05-20T01:16:24;100285.59;;;12.44;62.46
66430;BME280;53242;51.694;10.006;2023-05-20T01:18:47;100279.56;;;12.50;62.13
66430;BME280;53242;51.694;10.006;2023-05-20T01:21:10;100276.09;;;12.49;62.42
66430;BME280;53242;51.694;10.006;2023-05-20T01:23:38;100286.53;;;12.36;63.19
66430;BME280;53242;51.694;10.006;2023-05-20T01:26:04;100285.97;;;12.41;62.76
66430;BME280;53242;51.694;10.006;2023-05-20T01:28:27;100284.41;;;12.46;62.92
66430;BME280;53242;51.694;10.006;2023-05-20T01:30:55;100273.81;;;12.46;62.93
66430;BME280;53242;51.694;10.006;2023-05-20T01:33:19;100279.53;;;12.28;63.09
66430;BME280;53242;51.694;10.006;2023-05-20T01:35:44;100284.88;;;12.35;62.93
66430;BME280;53242;51.694;10.006;2023-05-20T01:38:08;100276.81;;;12.22;63.21
66430;BME280;53242;51.694;10.006;2023-05-20T01:40:32;100279.59;;;12.35;62.97
66430;BME280;53242;51.694;10.006;2023-05-20T01:42:55;100284.09;;;12.20;63.16
66430;BME280;53242;51.694;10.006;2023-05-20T01:45:19;100274.03;;;12.30;63.22
66430;BME280;53242;51.694;10.006;2023-05-20T01:47:44;100280.50;;;12.42;63.17
66430;BME280;53242;51.694;10.006;2023-05-20T01:50:07;100284.03;;;12.49;62.69
66430;BME280;53242;51.694;10.006;2023-05-20T01:52:30;100280.31;;;12.44;63.07
66430;BME280;53242;51.694;10.006;2023-05-20T01:54:53;100275.66;;;12.46;63.05
66430;BME280;53242;51.694;10.006;2023-05-20T01:57:22;100277.28;;;12.47;63.93
66430;BME280;53242;51.694;10.006;2023-05-20T01:59:46;100268.56;;;12.53;63.03
66430;BME280;53242;51.694;10.006;2023-05-20T02:02:09;100268.03;;;12.58;63.20
66430;BME280;53242;51.694;10.006;2023-05-20T02:04:31;100262.50;;;12.38;63.83
66430;BME280;53242;51.694;10.006;2023-05-20T02:06:53;100260.19;;;12.28;64.18
66430;BME280;53242;51.694;10.006;2023-05-20T02:09:18;100253.75;;;12.37;63.98
66430;BME280;53242;51.694;10.006;2023-05-20T02:11:41;100251.38;;;12.42;64.09
66430;BME280;53242;51.694;10.006;2023-05-20T02:14:04;100247.59;;;12.52;63.54
66430;BME280;53242;51.694;10.006;2023-05-20T02:16:26;100253.34;;;12.55;63.46
66430;BME280;53242;51.694;10.006;2023-05-20T02:18:49;100247.22;;;12.55;63.26
66430;BME280;53242;51.694;10.006;2023-05-20T02:21:14;100255.97;;;12.55;63.29
66430;BME280;53242;51.694;10.006;2023-05-20T02:23:36;100248.84;;;12.56;63.40
66430;BME280;53242;51.694;10.006;2023-05-20T02:26:01;100252.78;;;12.60;63.54
66430;BME280;53242;51.694;10.006;2023-05-20T02:28:23;100245.84;;;12.59;63.47
66430;BME280;53242;51.694;10.006;2023-05-20T02:30:46;100245.44;;;12.62;63.87
66430;BME280;53242;51.694;10.006;2023-05-20T02:33:08;100247.59;;;12.73;63.33
66430;BME280;53242;51.694;10.006;2023-05-20T02:35:32;100244.31;;;12.71;63.65
66430;BME280;53242;51.694;10.006;2023-05-20T02:37:54;100244.91;;;12.66;63.99
66430;BME280;53242;51.694;10.006;2023-05-20T02:40:17;100240.41;;;12.67;64.20
66430;BME280;53242;51.694;10.006;2023-05-20T02:42:39;100250.44;;;12.50;64.91
66430;BME280;53242;51.694;10.006;2023-05-20T02:45:02;100243.63;;;12.41;65.35
66430;BME280;53242;51.694;10.006;2023-05-20T02:47:25;100247.78;;;12.50;64.96
66430;BME280;53242;51.694;10.006;2023-05-20T02:49:47;100245.34;;;12.70;64.26
66430;BME280;53242;51.694;10.006;2023-05-20T02:52:10;100252.53;;;12.55;64.56
66430;BME280;53242;51.694;10.006;2023-05-20T02:54:32;100248.34;;;12.67;64.25
66430;BME280;53242;51.694;10.006;2023-05-20T02:56:55;100243.75;;;12.76;63.81
66430;BME280;53242;51.694;10.006;2023-05-20T02:59:18;100251.59;;;12.62;64.60
66430;BME280;53242;51.694;10.006;2023-05-20T03:01:40;100250.03;;;12.53;65.29
66430;BME280;53242;51.694;10.006;2023-05-20T03:04:02;100255.19;;;12.55;65.34
66430;BME280;53242;51.694;10.006;2023-05-20T03:06:25;100250.38;;;12.65;65.02
66430;BME280;53242;51.694;10.006;2023-05-20T03:08:48;100254.41;;;12.61;65.28
66430;BME280;53242;51.694;10.006;2023-05-20T03:11:10;100253.78;;;12.59;65.33
66430;BME280;53242;51.694;10.006;2023-05-20T03:13:33;100253.19;;;12.63;65.53
66430;BME280;53242;51.694;10.006;2023-05-20T03:15:56;100247.50;;;12.60;65.65
66430;BME280;53242;51.694;10.006;2023-05-20T03:18:19;100246.28;;;12.62;65.36
66430;BME280;53242;51.694;10.006;2023-05-20T03:20:42;100252.00;;;12.66;65.31
66430;BME280;53242;51.694;10.006;2023-05-20T03:23:05;100257.13;;;12.68;64.90
66430;BME280;53242;51.694;10.006;2023-05-20T03:25:27;100253.66;;;12.67;64.93
66430;BME280;53242;51.694;10.006;2023-05-20T03:27:50;100259.84;;;12.74;64.89
66430;BME280;53242;51.694;10.006;2023-05-20T03:30:13;100259.00;;;12.74;65.04
66430;BME280;53242;51.694;10.006;2023-05-20T03:32:35;100264.63;;;12.64;65.64
66430;BME280;53242;51.694;10.006;2023-05-20T03:34:58;100266.44;;;12.63;65.68
66430;BME280;53242;51.694;10.006;2023-05-20T03:37:21;100258.50;;;12.63;65.48
66430;BME280;53242;51.694;10.006;2023-05-20T03:39:43;100269.03;;;12.57;65.85
66430;BME280;53242;51.694;10.006;2023-05-20T03:42:06;100267.50;;;12.47;66.44
66430;BME280;53242;51.694;10.006;2023-05-20T03:44:29;100264.63;;;12.64;65.83
66430;BME280;53242;51.694;10.006;2023-05-20T03:46:51;100259.88;;;12.59;65.86
66430;BME280;53242;51.694;10.006;2023-05-20T03:49:14;100259.53;;;12.62;65.81
66430;BME280;53242;51.694;10.006;2023-05-20T03:51:36;100258.38;;;12.72;65.46
66430;BME280;53242;51.694;10.006;2023-05-20T03:54:04;100254.53;;;12.74;65.58
66430;BME280;53242;51.694;10.006;2023-05-20T03:56:27;100253.00;;;12.87;65.03
66430;BME280;53242;51.694;10.006;2023-05-20T03:58:49;100259.44;;;12.77;65.41
66430;BME280;53242;51.694;10.006;2023-05-20T04:01:13;100259.44;;;12.77;65.47
66430;BME280;53242;51.694;10.006;2023-05-20T04:03:36;100254.78;;;12.58;66.84
66430;BME280;53242;51.694;10.006;2023-05-20T04:05:59;100251.06;;;12.74;65.89
66430;BME280;53242;51.694;10.006;2023-05-20T04:08:21;100250.28;;;12.80;65.61
66430;BME280;53242;51.694;10.006;2023-05-20T04:10:46;100250.88;;;12.75;65.75
66430;BME280;53242;51.694;10.006;2023-05-20T04:13:09;100250.59;;;12.92;65.37
66430;BME280;53242;51.694;10.006;2023-05-20T04:15:34;100251.19;;;12.87;65.29
66430;BME280;53242;51.694;10.006;2023-05-20T04:17:57;100256.72;;;12.92;65.19
66430;BME280;53242;51.694;10.006;2023-05-20T04:20:20;100263.44;;;12.88;65.49
66430;BME280;53242;51.694;10.006;2023-05-20T04:22:44;100262.09;;;12.99;64.83
66430;BME280;53242;51.694;10.006;2023-05-20T04:25:07;100261.69;;;13.02;64.68
66430;BME280;53242;51.694;10.006;2023-05-20T04:27:29;100262.88;;;12.99;65.17
66430;BME280;53242;51.694;10.006;2023-05-20T04:29:55;100263.81;;;13.13;64.76
66430;BME280;53242;51.694;10.006;2023-05-20T04:32:19;100259.91;;;13.09;64.96
66430;BME280;53242;51.694;10.006;2023-05-20T04:34:43;100259.72;;;13.11;65.41
66430;BME280;53242;51.694;10.006;2023-05-20T04:37:08;100262.19;;;13.12;65.08
66430;BME280;53242;51.694;10.006;2023-05-20T04:39:31;100263.78;;;13.07;65.52
66430;BME280;53242;51.694;10.006;2023-05-20T04:41:54;100258.06;;;13.10;65.32
66430;BME280;53242;51.694;10.006;2023-05-20T04:44:16;100261.81;;;13.15;64.91
66430;BME280;53242;51.694;10.006;2023-05-20T04:46:39;100257.38;;;13.23;64.79
66430;BME280;53242;51.694;10.006;2023-05-20T04:49:02;100264.53;;;13.29;64.97
66430;BME280;53242;51.694;10.006;2023-05-20T04:51:25;100268.03;;;13.29;64.98
66430;BME280;53242;51.694;10.006;2023-05-20T04:53:48;100271.28;;;13.31;65.06
66430;BME280;53242;51.694;10.006;2023-05-20T04:56:12;100271.28;;;13.31;65.34
66430;BME280;53242;51.694;10.006;2023-05-20T04:58:34;100269.81;;;13.22;65.24
66430;BME280;53242;51.694;10.006;2023-05-20T05:00:57;100264.03;;;13.40;64.83
66430;BME280;53242;51.694;10.006;2023-05-20T05:03:19;100262.97;;;13.35;64.93
66430;BME280;53242;51.694;10.006;2023-05-20T05:05:42;100256.22;;;13.32;65.25
66430;BME280;53242;51.694;10.006;2023-05-20T05:08:05;100265.50;;;13.43;64.79
66430;BME280;53242;51.694;10.006;2023-05-20T05:10:30;100259.16;;;13.37;65.23
66430;BME280;53242;51.694;10.006;2023-05-20T05:12:52;100257.88;;;13.33;65.37
66430;BME280;53242;51.694;10.006;2023-05-20T05:15:15;100253.34;;;13.55;64.48
66430;BME280;53242;51.694;10.006;2023-05-20T05:17:39;100256.50;;;13.72;64.11
66430;BME280;53242;51.694;10.006;2023-05-20T05:20:02;100257.41;;;13.51;65.07
66430;BME280;53242;51.694;10.006;2023-05-20T05:22:27;100248.31;;;13.74;64.63
66430;BME280;53242;51.694;10.006;2023-05-20T05:24:49;100255.47;;;13.73;64.36
66430;BME280;53242;51.694;10.006;2023-05-20T05:27:12;100246.50;;;13.74;64.40
66430;BME280;53242;51.694;10.006;2023-05-20T05:29:34;100246.75;;;13.79;64.58
66430;BME280;53242;51.694;10.006;2023-05-20T05:31:57;100248.97;;;13.82;64.40
66430;BME280;53242;51.694;10.006;2023-05-20T05:34:19;100254.53;;;13.88;64.38
66430;BME280;53242;51.694;10.006;2023-05-20T05:36:44;100248.63;;;13.92;64.35
66430;BME280;53242;51.694;10.006;2023-05-20T05:39:06;100253.88;;;13.86;64.38
66430;BME280;53242;51.694;10.006;2023-05-20T05:41:31;100257.06;;;14.16;63.83
66430;BME280;53242;51.694;10.006;2023-05-20T05:43:54;100261.25;;;13.84;64.30
66430;BME280;53242;51.694;10.006;2023-05-20T05:46:16;100257.44;;;14.06;63.63
66430;BME280;53242;51.694;10.006;2023-05-20T05:48:39;100249.00;;;13.89;64.01
66430;BME280;53242;51.694;10.006;2023-05-20T05:51:03;100245.00;;;14.07;63.67
66430;BME280;53242;51.694;10.006;2023-05-20T05:53:26;100253.41;;;14.17;63.40
66430;BME280;53242;51.694;10.006;2023-05-20T05:55:48;100260.38;;;14.18;63.50
66430;BME280;53242;51.694;10.006;2023-05-20T05:58:12;100261.28;;;13.90;63.91
66430;BME280;53242;51.694;10.006;2023-05-20T06:00:34;100262.81;;;14.26;62.99
66430;BME280;53242;51.694;10.006;2023-05-20T06:02:57;100261.84;;;14.34;62.85
66430;BME280;53242;51.694;10.006;2023-05-20T06:05:30;100262.63;;;14.28;63.04
66430;BME280;53242;51.694;10.006;2023-05-20T06:07:53;100262.81;;;14.20;63.51
66430;BME280;53242;51.694;10.006;2023-05-20T06:10:15;100258.53;;;14.25;63.23
66430;BME280;53242;51.694;10.006;2023-05-20T06:12:38;100260.03;;;14.55;62.46
66430;BME280;53242;51.694;10.006;2023-05-20T06:15:00;100258.41;;;14.54;62.43
66430;BME280;53242;51.694;10.006;2023-05-20T06:17:23;100255.88;;;14.19;63.27
66430;BME280;53242;51.694;10.006;2023-05-20T06:19:45;100251.59;;;14.24;63.59
66430;BME280;53242;51.694;10.006;2023-05-20T06:22:08;100246.47;;;14.16;64.28
66430;BME280;53242;51.694;10.006;2023-05-20T06:24:32;100250.84;;;14.51;63.09
66430;BME280;53242;51.694;10.006;2023-05-20T06:26:56;100249.22;;;14.63;62.98
66430;BME280;53242;51.694;10.006;2023-05-20T06:29:19;100250.88;;;14.64;62.66
66430;BME280;53242;51.694;10.006;2023-05-20T06:31:42;100253.75;;;14.69;62.83
66430;BME280;53242;51.694;10.006;2023-05-20T06:34:04;100251.06;;;14.62;62.78
66430;BME280;53242;51.694;10.006;2023-05-20T06:36:26;100260.88;;;14.62;63.34
66430;BME280;53242;51.694;10.006;2023-05-20T06:38:49;100253.75;;;14.69;63.16
66430;BME280;53242;51.694;10.006;2023-05-20T06:41:12;100254.53;;;14.63;63.28
66430;BME280;53242;51.694;10.006;2023-05-20T06:43:35;100257.19;;;14.63;63.28
66430;BME280;53242;51.694;10.006;2023-05-20T06:46:05;100253.91;;;14.61;63.41
66430;BME280;53242;51.694;10.006;2023-05-20T06:48:38;100260.25;;;14.60;63.38
66430;BME280;53242;51.694;10.006;2023-05-20T06:51:03;100264.34;;;14.62;63.64
66430;BME280;53242;51.694;10.006;2023-05-20T06:53:26;100258.84;;;14.64;63.92
66430;BME280;53242;51.694;10.006;2023-05-20T06:55:48;100255.72;;;14.40;64.97
66430;BME280;53242;51.694;10.006;2023-05-20T06:58:12;100258.97;;;14.36;65.14
66430;BME280;53242;51.694;10.006;2023-05-20T07:00:35;100256.75;;;14.39;64.96
66430;BME280;53242;51.694;10.006;2023-05-20T07:02:58;100249.00;;;14.51;64.67
66430;BME280;53242;51.694;10.006;2023-05-20T07:05:20;100254.72;;;14.61;64.46
66430;BME280;53242;51.694;10.006;2023-05-20T07:07:42;100244.72;;;14.57;64.38
66430;BME280;53242;51.694;10.006;2023-05-20T07:10:05;100253.16;;;14.74;63.76
66430;BME280;53242;51.694;10.006;2023-05-20T07:12:28;100245.19;;;14.80;63.30
66430;BME280;53242;51.694;10.006;2023-05-20T07:14:51;100240.28;;;15.11;62.78
66430;BME280;53242;51.694;10.006;2023-05-20T07:17:13;100241.28;;;14.96;63.08
66430;BME280;53242;51.694;10.006;2023-05-20T07:19:36;100236.78;;;14.84;63.63
66430;BME280;53242;51.694;10.006;2023-05-20T07:21:59;100235.16;;;14.96;63.35
66430;BME280;53242;51.694;10.006;2023-05-20T07:24:37;100224.91;;;15.13;62.48
66430;BME280;53242;51.694;10.006;2023-05-20T07:27:00;100213.47;;;14.99;62.78
66430;BME280;53242;51.694;10.006;2023-05-20T07:29:23;100213.25;;;15.21;62.24
66430;BME280;53242;51.694;10.006;2023-05-20T07:31:45;100202.97;;;15.38;62.18
66430;BME280;53242;51.694;10.006;2023-05-20T07:34:08;100208.31;;;15.31;61.98
66430;BME280;53242;51.694;10.006;2023-05-20T07:36:31;100209.63;;;15.74;60.52
66430;BME280;53242;51.694;10.006;2023-05-20T07:38:58;100201.00;;;15.92;60.15
66430;BME280;53242;51.694;10.006;2023-05-20T07:41:20;100198.56;;;15.77;60.06
66430;BME280;53242;51.694;10.006;2023-05-20T07:43:44;100190.34;;;15.92;60.20
66430;BME280;53242;51.694;10.006;2023-05-20T07:46:07;100189.84;;;16.40;58.60
66430;BME280;53242;51.694;10.006;2023-05-20T07:48:29;100184.47;;;16.72;58.12
66430;BME280;53242;51.694;10.006;2023-05-20T07:50:52;100181.28;;;16.89;58.03
66430;BME280;53242;51.694;10.006;2023-05-20T07:53:14;100172.75;;;17.24;56.27
66430;BME280;53242;51.694;10.006;2023-05-20T07:55:37;100177.19;;;17.30;56.49
66430;BME280;53242;51.694;10.006;2023-05-20T07:58:00;100179.16;;;17.72;55.70
66430;BME280;53242;51.694;10.006;2023-05-20T08:00:23;100175.09;;;16.95;56.99
66430;BME280;53242;51.694;10.006;2023-05-20T08:02:45;100167.34;;;17.49;55.38
66430;BME280;53242;51.694;10.006;2023-05-20T08:05:12;100167.50;;;17.54;55.48
66430;BME280;53242;51.694;10.006;2023-05-20T08:07:35;100178.44;;;16.58;57.03
66430;BME280;53242;51.694;10.006;2023-05-20T08:09:58;100175.56;;;16.35;57.56
66430;BME280;53242;51.694;10.006;2023-05-20T08:12:22;100174.63;;;16.48;57.25
66430;BME280;53242;51.694;10.006;2023-05-20T08:14:45;100165.22;;;16.70;56.97
66430;BME280;53242;51.694;10.006;2023-05-20T08:17:07;100166.44;;;16.74;56.81
66430;BME280;53242;51.694;10.006;2023-05-20T08:19:29;100176.16;;;16.62;56.82
66430;BME280;53242;51.694;10.006;2023-05-20T08:21:52;100172.94;;;16.53;57.13
66430;BME280;53242;51.694;10.006;2023-05-20T08:24:15;100179.41;;;16.39;58.04
66430;BME280;53242;51.694;10.006;2023-05-20T08:26:38;100166.78;;;16.27;57.70
66430;BME280;53242;51.694;10.006;2023-05-20T08:29:01;100157.69;;;16.92;56.32
66430;BME280;53242;51.694;10.006;2023-05-20T08:31:24;100162.38;;;16.65;56.69
66430;BME280;53242;51.694;10.006;2023-05-20T08:33:46;100156.09;;;16.85;56.01
66430;BME280;53242;51.694;10.006;2023-05-20T08:36:08;100153.59;;;16.90;55.57
66430;BME280;53242;51.694;10.006;2023-05-20T08:38:31;100151.34;;;16.87;55.25
66430;BME280;53242;51.694;10.006;2023-05-20T08:40:55;100146.94;;;16.99;55.22
66430;BME280;53242;51.694;10.006;2023-05-20T08:43:18;100144.75;;;17.15;54.44
66430;BME280;53242;51.694;10.006;2023-05-20T08:45:41;100145.75;;;17.51;53.81
66430;BME280;53242;51.694;10.006;2023-05-20T08:48:07;100141.59;;;17.55;54.26
66430;BME280;53242;51.694;10.006;2023-05-20T08:50:30;100149.53;;;17.62;53.98
66430;BME280;53242;51.694;10.006;2023-05-20T08:52:53;100149.84;;;17.53;53.99
66430;BME280;53242;51.694;10.006;2023-05-20T08:55:41;100148.97;;;17.22;54.35
66430;BME280;53242;51.694;10.006;2023-05-20T08:58:01;100144.59;;;17.09;54.77
66430;BME280;53242;51.694;10.006;2023-05-20T09:00:24;100137.31;;;17.17;54.96
66430;BME280;53242;51.694;10.006;2023-05-20T09:02:49;100146.06;;;17.24;55.14
66430;BME280;53242;51.694;10.006;2023-05-20T09:05:13;100136.72;;;17.33;54.63
66430;BME280;53242;51.694;10.006;2023-05-20T09:07:35;100141.31;;;17.45;54.92
66430;BME280;53242;51.694;10.006;2023-05-20T09:09:58;100142.66;;;17.17;54.94
66430;BME280;53242;51.694;10.006;2023-05-20T09:12:20;100140.97;;;17.22;54.59
66430;BME280;53242;51.694;10.006;2023-05-20T09:14:43;100139.00;;;17.30;54.67
66430;BME280;53242;51.694;10.006;2023-05-20T09:17:05;100136.06;;;17.38;54.89
66430;BME280;53242;51.694;10.006;2023-05-20T09:19:29;100141.50;;;17.31;54.56
66430;BME280;53242;51.694;10.006;2023-05-20T09:21:54;100136.50;;;17.53;54.42
66430;BME280;53242;51.694;10.006;2023-05-20T09:24:22;100134.06;;;17.82;53.07
66430;BME280;53242;51.694;10.006;2023-05-20T09:26:45;100132.78;;;17.85;53.91
66430;BME280;53242;51.694;10.006;2023-05-20T09:29:08;100145.06;;;18.04;53.37
66430;BME280;53242;51.694;10.006;2023-05-20T09:31:30;100151.56;;;17.78;54.21
66430;BME280;53242;51.694;10.006;2023-05-20T09:33:54;100141.66;;;17.67;53.71
66430;BME280;53242;51.694;10.006;2023-05-20T09:36:18;100155.59;;;17.69;54.41
66430;BME280;53242;51.694;10.006;2023-05-20T09:38:41;100147.34;;;17.70;54.50
66430;BME280;53242;51.694;10.006;2023-05-20T09:41:13;100147.31;;;17.58;55.28
66430;BME280;53242;51.694;10.006;2023-05-20T09:43:38;100149.59;;;17.55;55.52
66430;BME280;53242;51.694;10.006;2023-05-20T09:46:01;100152.31;;;17.36;55.92
66430;BME280;53242;51.694;10.006;2023-05-20T09:48:24;100153.56;;;17.34;56.04
66430;BME280;53242;51.694;10.006;2023-05-20T09:50:50;100152.06;;;17.38;56.20
66430;BME280;53242;51.694;10.006;2023-05-20T09:53:13;100157.41;;;17.19;55.71
66430;BME280;53242;51.694;10.006;2023-05-20T09:55:37;100155.03;;;17.48;55.35
66430;BME280;53242;51.694;10.006;2023-05-20T09:58:02;100149.84;;;17.35;55.57
66430;BME280;53242;51.694;10.006;2023-05-20T10:00:24;100143.69;;;17.34;55.19
66430;BME280;53242;51.694;10.006;2023-05-20T10:02:49;100145.91;;;17.56;54.95
66430;BME280;53242;51.694;10.006;2023-05-20T10:05:39;100138.13;;;17.54;54.32
66430;BME280;53242;51.694;10.006;2023-05-20T10:08:34;100127.81;;;17.88;53.88
66430;BME280;53242;51.694;10.006;2023-05-20T10:11:18;100133.38;;;17.87;54.34
66430;BME280;53242;51.694;10.006;2023-05-20T10:14:19;100134.25;;;17.99;54.40
66430;BME280;53242;51.694;10.006;2023-05-20T10:19:47;100143.47;;;17.85;54.53
66430;BME280;53242;51.694;10.006;2023-05-20T10:22:11;100138.44;;;17.77;54.34
66430;BME280;53242;51.694;10.006;2023-05-20T10:24:39;100132.50;;;17.25;55.92
66430;BME280;53242;51.694;10.006;2023-05-20T10:27:04;100133.16;;;17.88;55.14
66430;BME280;53242;51.694;10.006;2023-05-20T10:29:26;100118.94;;;17.95;54.67
66430;BME280;53242;51.694;10.006;2023-05-20T10:31:50;100112.69;;;18.13;54.54
66430;BME280;53242;51.694;10.006;2023-05-20T10:34:14;100111.88;;;17.82;54.70
66430;BME280;53242;51.694;10.006;2023-05-20T10:36:44;100107.09;;;18.02;54.09
66430;BME280;53242;51.694;10.006;2023-05-20T10:39:14;100114.41;;;18.07;54.50
66430;BME280;53242;51.694;10.006;2023-05-20T10:41:38;100109.25;;;18.24;54.04
66430;BME280;53242;51.694;10.006;2023-05-20T10:44:04;100110.72;;;18.08;53.96
66430;BME280;53242;51.694;10.006;2023-05-20T10:46:28;100113.06;;;18.16;54.27
66430;BME280;53242;51.694;10.006;2023-05-20T10:48:50;100121.97;;;17.98;54.66
66430;BME280;53242;51.694;10.006;2023-05-20T10:51:13;100116.75;;;17.85;55.22
66430;BME280;53242;51.694;10.006;2023-05-20T10:53:40;100114.81;;;17.92;54.62
66430;BME280;53242;51.694;10.006;2023-05-20T10:56:03;100118.38;;;17.55;55.41
66430;BME280;53242;51.694;10.006;2023-05-20T10:58:26;100109.53;;;17.24;55.89
66430;BME280;53242;51.694;10.006;2023-05-20T11:00:49;100102.78;;;17.22;56.73
66430;BME280;53242;51.694;10.006;2023-05-20T11:03:13;100106.50;;;17.21;56.69
66430;BME280;53242;51.694;10.006;2023-05-20T11:05:38;100108.88;;;17.11;56.87
66430;BME280;53242;51.694;10.006;2023-05-20T11:08:05;100108.31;;;16.83;57.40
66430;BME280;53242;51.694;10.006;2023-05-20T11:10:29;100103.91;;;16.70;57.80
66430;BME280;53242;51.694;10.006;2023-05-20T11:12:52;100102.47;;;16.74;57.56
66430;BME280;53242;51.694;10.006;2023-05-20T11:15:15;100102.31;;;16.69;57.82
66430;BME280;53242;51.694;10.006;2023-05-20T11:17:56;100100.81;;;16.73;57.48
66430;BME280;53242;51.694;10.006;2023-05-20T11:20:19;100106.00;;;16.68;57.54
66430;BME280;53242;51.694;10.006;2023-05-20T11:22:43;100102.72;;;16.66;58.16
66430;BME280;53242;51.694;10.006;2023-05-20T11:25:06;100096.53;;;16.72;57.89
66430;BME280;53242;51.694;10.006;2023-05-20T11:27:29;100100.44;;;16.70;57.91
66430;BME280;53242;51.694;10.006;2023-05-20T11:29:51;100099.50;;;16.83;57.88
66430;BME280;53242;51.694;10.006;2023-05-20T11:32:14;100089.22;;;16.86;57.49
66430;BME280;53242;51.694;10.006;2023-05-20T11:34:37;100093.69;;;16.92;57.32
66430;BME280;53242;51.694;10.006;2023-05-20T11:37:00;100078.94;;;16.90;57.55
66430;BME280;53242;51.694;10.006;2023-05-20T11:39:23;100084.00;;;16.98;57.37
66430;BME280;53242;51.694;10.006;2023-05-20T11:41:46;100084.75;;;17.05;57.20
66430;BME280;53242;51.694;10.006;2023-05-20T11:44:09;100079.81;;;17.39;56.63
66430;BME280;53242;51.694;10.006;2023-05-20T11:46:44;100079.47;;;17.48;56.91
66430;BME280;53242;51.694;10.006;2023-05-20T11:49:06;100073.78;;;17.74;56.10
66430;BME280;53242;51.694;10.006;2023-05-20T11:51:29;100066.13;;;18.08;55.50
66430;BME280;53242;51.694;10.006;2023-05-20T11:53:58;100057.53;;;18.30;54.72
66430;BME280;53242;51.694;10.006;2023-05-20T11:56:20;100051.50;;;18.35;54.76
66430;BME280;53242;51.694;10.006;2023-05-20T11:58:43;100055.34;;;18.63;54.09
66430;BME280;53242;51.694;10.006;2023-05-20T12:01:06;100054.63;;;18.08;55.01
66430;BME280;53242;51.694;10.006;2023-05-20T12:03:29;100058.47;;;18.71;54.35
66430;BME280;53242;51.694;10.006;2023-05-20T12:05:52;100051.94;;;19.03;53.33
66430;BME280;53242;51.694;10.006;2023-05-20T12:08:15;100046.22;;;18.99;53.72
66430;BME280;53242;51.694;10.006;2023-05-20T12:10:38;100037.88;;;18.72;53.81
66430;BME280;53242;51.694;10.006;2023-05-20T12:13:00;100040.88;;;19.40;52.72
66430;BME280;53242;51.694;10.006;2023-05-20T12:15:24;100040.44;;;19.02;53.07
66430;BME280;53242;51.694;10.006;2023-05-20T12:17:48;100035.38;;;19.06;52.03
66430;BME280;53242;51.694;10.006;2023-05-20T12:20:13;100035.28;;;19.01;53.23
66430;BME280;53242;51.694;10.006;2023-05-20T12:22:36;100028.75;;;19.09;54.03
66430;BME280;53242;51.694;10.006;2023-05-20T12:24:58;100028.69;;;18.80;53.60
66430;BME280;53242;51.694;10.006;2023-05-20T12:27:21;100037.63;;;18.85;53.44